Latest Coastal Weather Observations for Lockhart River

IDQ60701

Issued at 2:52 am EST Friday 5 March 2021 (issued every 10 minutes, with the page automatically refreshed every 10 minutes)

About coastal observations | Map of coastal stations | Coastal observations for QLD | Marine services | Other Formats
Station Details ID: 028008 Name: LOCKHART RIVER AIRPORT Lat: -12.79 Lon: 143.30 Height: 18.5 m
Data from the previous 72 hours. | See also: Recent months at Lockhart River
Date/Time
EST
Wind Sea
Height
m
Swell Vis
km
Cloud Weather Temp
°C
Press
MSL
hPa
Rain since
9am
mm
Dir  Spd
kts
Gust
kts
Height
m
Period
s
Dir
05/02:30am NNW 6 8 - - - - 10 - - 26.1 1006.0 0.4
05/02:00am N 6 10 - - - - 10 Partly cloudy - 26.4 1006.3 0.4
05/01:30am N 6 9 - - - - 10 - - 26.2 1006.0 0.4
05/01:00am NW 10 14 - - - - 10 - - 26.5 1005.8 0.4
05/12:30am NW 12 16 - - - - 10 - - 26.6 1006.1 0.4
05/12:00am NW 13 19 - - - - 10 Mostly clear - 27.0 1006.5 0.4
 
Date/Time
EST
Wind Sea
Height
m
Swell Vis
km
Cloud Weather Temp
°C
Press
MSL
hPa
Rain since
9am
mm
Dir  Spd
kts
Gust
kts
Height
m
Period
s
Dir
04/11:30pm WNW 13 19 - - - - 10 - - 27.2 1006.7 0.4
04/11:00pm WNW 14 18 - - - - 10 - - 27.2 1006.7 0.4
04/10:30pm WNW 12 19 - - - - 10 - - 27.1 1006.6 0.4
04/10:00pm NW 13 21 - - - - 10 - - 28.0 1006.4 0.4
04/09:30pm NW 11 16 - - - - 10 - - 27.8 1006.3 0.4
04/09:00pm NW 10 14 - - - - 10 Mostly cloudy - 28.3 1006.2 0.4
04/08:30pm NW 9 12 - - - - 10 - - 28.1 1005.9 0.4
04/08:00pm WNW 13 18 - - - - 10 - - 28.2 1005.6 0.4
04/07:30pm NW 13 19 - - - - 10 - - 28.3 1005.2 0.4
04/07:00pm NW 10 15 - - - - 10 - - 28.1 1005.1 0.4
04/06:30pm NW 11 15 - - - - 10 - - 28.5 1004.7 0.4
04/06:00pm NW 8 15 - - - - 10 - - 28.8 1004.4 0.4
04/05:30pm NW 11 13 - - - - 10 Partly cloudy - 29.0 1004.0 0.4
04/05:00pm WNW 13 17 - - - - 10 Partly cloudy - 30.0 1003.7 0.4
04/04:30pm NW 12 17 - - - - 10 - - 29.2 1003.3 0.4
04/04:00pm WNW 10 14 - - - - 10 Partly cloudy - 29.4 1003.4 0.4
04/03:30pm WNW 11 14 - - - - 10 - - 29.7 1003.6 0.4
04/03:00pm W 12 16 - - - - 10 Cloudy - 29.1 1003.9 0.4
04/02:30pm W 12 18 - - - - 10 - - 30.5 1004.1 0.4
04/02:00pm WNW 12 17 - - - - 10 - - 28.9 1004.2 0.4
04/01:30pm WNW 9 13 - - - - 10 - - 28.3 1004.8 0.2
04/01:00pm WNW 10 14 - - - - 10 - - 27.8 1005.2 0.2
04/12:30pm WNW 9 12 - - - - 10 - - 27.4 1005.9 0.2
04/12:00pm NW 8 14 - - - - 10 Cloudy - 26.8 1006.3 0.2
04/11:30am WNW 11 18 - - - - 10 Cloudy - 25.9 1006.9 0.2
04/11:00am NW 7 10 - - - - 10 Partly cloudy - 25.5 1007.2 0.0
04/10:30am WNW 11 16 - - - - 10 Partly cloudy - 25.7 1007.5 0.0
04/10:00am WNW 13 17 - - - - 10 Partly cloudy - 25.3 1007.3 0.0
04/09:30am NNW 4 6 - - - - 10 Partly cloudy - 25.3 1007.3 0.0
04/09:00am NNW 7 14 - - - - 10 Mostly cloudy - 25.7 1007.0 38.0
04/08:30am NW 7 12 - - - - 10 Partly cloudy - 25.2 1006.9 38.0
04/08:00am NNW 4 9 - - - - 10 - - 24.5 1006.6 38.0
04/07:30am NNW 13 22 - - - - 10 Partly cloudy - 24.5 1005.9 38.0
04/07:11am NW 15 26 - - - - 10 Partly cloudy - 24.7 1005.9 38.0
04/07:00am NW 17 25 - - - - 10 Partly cloudy - 24.8 1005.9 38.0
04/06:44am NW 15 23 - - - - 10 Partly cloudy - 24.5 1005.8 38.0
04/06:30am NW 7 12 - - - - 10 Partly cloudy - 24.1 1005.9 38.0
04/06:00am NNW 8 13 - - - - 10 Cloudy - 23.8 1005.4 38.0
04/05:30am NNW 11 15 - - - - 10 Partly cloudy - 23.9 1005.1 38.0
04/05:00am NW 9 15 - - - - 10 Partly cloudy - 23.8 1004.8 38.0
04/04:30am NNW 8 12 - - - - 10 Cloudy - 23.6 1004.4 38.0
04/04:00am NW 13 17 - - - - 10 Partly cloudy - 23.2 1003.8 38.0
04/03:30am NNW 5 8 - - - - 10 Partly cloudy - 23.8 1004.4 38.0
04/03:00am NNW 9 13 - - - - 10 Cloudy Recent precip. 24.0 1004.3 38.0
04/02:30am NNW 7 10 - - - - 10 Cloudy - 23.9 1004.1 38.0
04/02:00am NNW 5 8 - - - - 10 Partly cloudy - 24.0 1004.7 37.8
04/01:30am NW 7 9 - - - - 10 Cloudy - 23.4 1004.5 37.8
04/01:00am NW 2 3 - - - - 10 Partly cloudy - 23.4 1005.6 37.8
04/12:30am NNW 4 6 - - - - 10 Partly cloudy - 23.3 1005.6 37.8
04/12:00am NNW 5 7 - - - - 10 Mostly cloudy - 23.2 1005.8 37.8
 
Date/Time
EST
Wind Sea
Height
m
Swell Vis
km
Cloud Weather Temp
°C
Press
MSL
hPa
Rain since
9am
mm
Dir  Spd
kts
Gust
kts
Height
m
Period
s
Dir
03/11:30pm NNW 7 9 - - - - 10 Cloudy - 23.5 1006.1 37.8
03/11:00pm NNW 2 4 - - - - 10 Partly cloudy - 23.6 1007.0 37.6
03/10:30pm NNW 2 4 - - - - 10 Cloudy - 23.7 1006.8 37.6
03/10:00pm NNW 5 7 - - - - 10 Cloudy - 23.7 1006.6 37.6
03/09:30pm CALM 0 0 - - - - 10 Partly cloudy - 23.8 1006.5 37.6
03/09:00pm CALM 0 0 - - - - 10 Cloudy - 23.9 1006.2 37.6
03/08:30pm S 4 4 - - - - 10 Partly cloudy - 24.2 1005.9 37.6
03/08:00pm SSE 6 8 - - - - 10 Partly cloudy - 24.2 1005.7 37.6
03/07:30pm SSW 4 6 - - - - 10 Cloudy - 24.3 1004.9 37.6
03/07:00pm NW 1 5 - - - - 10 Cloudy - 24.5 1004.4 37.6
03/06:30pm NNW 7 9 - - - - 10 Cloudy - 24.3 1003.7 37.6
03/06:00pm WNW 4 6 - - - - 10 Cloudy - 24.5 1004.6 37.4
03/05:30pm S 8 13 - - - - 10 Partly cloudy - 24.9 1004.9 37.4
03/05:00pm S 12 17 - - - - 10 Partly cloudy - 25.8 1004.3 37.4
03/04:30pm E 3 6 - - - - 10 Partly cloudy - 27.6 1003.4 37.4
03/04:00pm NW 5 9 - - - - 10 - - 28.0 1002.6 37.4
03/03:30pm NW 8 11 - - - - 10 Partly cloudy - 27.7 1002.3 37.4
03/03:00pm NNW 10 15 - - - - 10 Cloudy - 25.9 1002.7 37.4
03/02:30pm NNW 12 16 - - - - 10 Partly cloudy - 25.3 1002.9 37.4
03/02:00pm NNW 11 15 - - - - 10 - - 25.0 1003.4 37.4
03/01:30pm NNW 10 14 - - - - 10 Partly cloudy - 24.4 1004.2 37.4
03/01:00pm WNW 9 16 - - - - 10 Partly cloudy - 24.7 1005.5 37.4
03/12:30pm NNW 4 8 - - - - 10 Cloudy - 23.9 1006.0 37.2
03/12:00pm NW 7 9 - - - - 10 Cloudy - 23.2 1006.6 36.8
03/11:30am WNW 10 14 - - - - 10 Partly cloudy - 23.0 1007.1 35.4
03/11:00am NW 8 11 - - - - 10 Cloudy - 22.6 1007.3 33.6
03/10:30am WNW 7 9 - - - - 8 Partly cloudy - 22.2 1007.9 32.2
03/10:21am W 7 10 - - - - 10 Partly cloudy - 22.3 1008.1 31.6
03/10:18am W 6 10 - - - - 10 Partly cloudy - 21.9 1007.9 31.4
03/10:00am SSE 5 9 - - - - 1 Partly cloudy - 22.3 1008.3 29.6
03/09:30am SSE 10 13 - - - - 5 Partly cloudy - 23.4 1008.4 3.0
03/09:29am SSE 9 13 - - - - 5 Partly cloudy - 23.6 1008.3 2.4
03/09:00am ESE 9 13 - - - - 10 Cloudy - 24.3 1007.5 24.0
03/08:30am N 6 9 - - - - 10 Cloudy - 24.0 1006.2 24.0
03/08:00am NNE 2 5 - - - - 10 Partly cloudy - 23.4 1005.7 24.0
03/07:30am NW 4 6 - - - - 10 Partly cloudy - 22.7 1005.1 24.0
03/07:00am NNW 6 8 - - - - 10 - - 22.5 1005.2 24.0
03/06:30am N 9 13 - - - - 10 - - 22.6 1005.3 23.8
03/06:00am NW 6 7 - - - - 10 Cloudy - 22.6 1005.6 22.8
03/05:30am N 5 7 - - - - 10 Partly cloudy - 22.4 1005.8 21.2
03/05:00am WSW 6 9 - - - - 7 Cloudy - 22.4 1005.9 19.0
03/04:30am SW 5 7 - - - - 8 Partly cloudy - 22.9 1005.5 16.0
03/04:09am SW 8 11 - - - - 6 Partly cloudy - 23.0 1005.9 14.0
03/04:00am SW 9 13 - - - - 7 Partly cloudy - 23.1 1006.1 12.8
03/03:57am SW 9 16 - - - - 8 Partly cloudy - 23.1 1005.9 12.6
03/03:52am SW 12 23 - - - - 9 Partly cloudy - 23.1 1005.6 12.2
03/03:30am SW 12 23 - - - - 4 Partly cloudy - 23.2 1004.8 9.8
03/03:18am WNW 11 33 - - - - 5 Partly cloudy - 24.6 1004.8 7.8
03/03:17am WNW 10 33 - - - - 7 Partly cloudy - 24.7 1004.8 7.6
03/03:16am NW 8 32 - - - - 10 Partly cloudy - 25.2 1004.6 7.4
03/03:00am NNW 2 5 - - - - 10 Cloudy - 26.1 1004.5 6.6
03/02:46am N 4 6 - - - - 10 Cloudy - 26.1 1004.6 6.6
03/02:30am NNW 5 7 - - - - 10 Partly cloudy - 26.1 1004.8 6.6
03/02:20am NNW 6 9 - - - - 10 Partly cloudy - 26.2 1004.9 6.4
03/02:00am NNW 7 9 - - - - 10 Partly cloudy - 26.2 1005.0 6.2
03/01:36am CALM 0 3 - - - - 10 Partly cloudy - 25.0 1005.2 6.2
03/01:30am NE 1 3 - - - - 10 Partly cloudy - 24.9 1005.2 6.2
03/01:25am ENE 2 5 - - - - 10 Partly cloudy - 24.9 1005.2 6.2
03/01:00am CALM 0 0 - - - - 10 Cloudy - 25.1 1005.5 6.2
03/12:30am NE 7 13 - - - - 10 Partly cloudy - 25.8 1005.9 6.2
03/12:00am WNW 7 10 - - - - 10 Cloudy - 26.8 1006.0 6.2
 
Date/Time
EST
Wind Sea
Height
m
Swell Vis
km
Cloud Weather Temp
°C
Press
MSL
hPa
Rain since
9am
mm
Dir  Spd
kts
Gust
kts
Height
m
Period
s
Dir
02/11:35pm NW 4 6 - - - - 10 Partly cloudy - 26.7 1006.1 6.2
02/11:30pm N 4 6 - - - - 10 Partly cloudy - 26.7 1006.2 6.2
02/11:12pm NNW 4 11 - - - - 10 Partly cloudy - 26.6 1006.0 6.2
02/11:00pm W 6 9 - - - - 10 Partly cloudy - 26.5 1006.1 6.2
02/10:30pm NW 6 9 - - - - 10 Partly cloudy - 26.3 1005.9 6.2
02/10:00pm NNW 3 5 - - - - 10 Partly cloudy - 26.7 1005.4 6.2
02/09:30pm WNW 9 18 - - - - 10 Partly cloudy - 27.3 1004.9 6.2
02/09:00pm WNW 8 13 - - - - 10 Mostly cloudy - 27.3 1004.8 6.2
02/08:30pm NNW 7 10 - - - - 10 - - 26.5 1004.3 6.2
02/08:00pm NNW 6 9 - - - - 10 - - 26.5 1004.4 6.2
02/07:30pm WNW 3 5 - - - - 10 - - 25.1 1004.2 6.2
02/07:00pm W 6 8 - - - - 10 - - 25.5 1004.0 6.2
02/06:30pm W 8 14 - - - - 10 - - 26.1 1003.8 6.2
02/06:00pm W 9 11 - - - - 10 Partly cloudy - 25.9 1003.5 6.2
02/05:30pm WNW 9 13 - - - - 10 - - 25.9 1003.7 6.2
02/05:00pm WNW 7 10 - - - - 10 - - 26.0 1003.8 6.2
02/04:30pm WNW 8 12 - - - - 10 - - 25.8 1003.7 6.2
02/04:00pm WNW 10 15 - - - - 10 - - 26.0 1003.6 6.2
02/03:30pm NW 12 14 - - - - 10 Partly cloudy - 25.5 1003.8 6.2
02/03:00pm W 8 11 - - - - 10 Cloudy - 24.9 1003.9 6.2
02/02:30pm WNW 9 14 - - - - 10 Cloudy - 24.3 1003.8 6.0
02/02:00pm WNW 4 6 - - - - 10 Cloudy - 24.4 1004.6 5.2
02/01:30pm NNW 4 7 - - - - 10 Cloudy - 24.5 1005.2 3.6
02/01:00pm NW 6 10 - - - - 10 Partly cloudy - 25.0 1005.7 3.0
02/12:45pm ENE 4 8 - - - - 10 Partly cloudy - 24.9 1005.6 2.8
02/12:33pm S 13 23 - - - - 5 Partly cloudy - 24.5 1006.1 2.8
02/12:30pm S 15 23 - - - - 6 Partly cloudy - 24.6 1006.2 2.4
02/12:25pm SW 11 23 - - - - 10 Partly cloudy - 26.1 1006.0 1.2
02/12:00pm W 9 13 - - - - 10 Cloudy - 29.6 1005.7 1.0
02/11:30am WSW 6 11 - - - - 10 Partly cloudy - 30.3 1005.4 1.0
02/11:00am W 7 11 - - - - 10 Partly cloudy - 28.5 1005.8 1.0
02/10:30am W 10 19 - - - - 10 Partly cloudy - 30.8 1006.0 0.0
02/10:00am W 11 18 - - - - 10 Partly cloudy - 29.4 1006.0 0.0
02/09:30am WNW 8 11 - - - - 10 Partly cloudy - 28.9 1006.0 0.0
02/09:00am WNW 8 11 - - - - 10 Cloudy - 28.7 1006.4 1.2
02/08:30am WNW 9 13 - - - - 10 Partly cloudy - 28.5 1005.8 1.2
02/08:00am NW 12 17 - - - - 10 Partly cloudy - 27.8 1005.5 1.2
02/07:30am NW 8 11 - - - - 10 Partly cloudy - 27.3 1005.4 1.2
02/07:00am NNW 5 8 - - - - 10 Partly cloudy - 26.8 1005.5 1.2
02/06:30am NW 9 13 - - - - 10 Partly cloudy - 26.9 1005.4 1.2
02/06:00am WNW 8 12 - - - - 10 Mostly clear - 27.1 1005.1 1.2
02/05:30am NW 6 8 - - - - 10 Partly cloudy - 26.5 1005.1 1.2
02/05:00am W 7 10 - - - - 10 Partly cloudy - 27.0 1005.0 1.2
02/04:30am WNW 9 13 - - - - 10 Partly cloudy - 26.7 1004.5 1.2
02/04:00am NW 9 13 - - - - 10 Partly cloudy - 26.4 1004.5 1.2
02/03:30am NW 12 18 - - - - 10 Partly cloudy - 26.3 1004.5 1.2
02/03:00am NW 7 10 - - - - 10 Partly cloudy - 26.1 1004.5 1.2

Other formats

Comma delimited format used in spreadsheet applications
http://www.bom.gov.au/fwo/IDQ60701/IDQ60701.94186.axf

JavaScript Object Notation format (JSON) in row-major order
http://www.bom.gov.au/fwo/IDQ60701/IDQ60701.94186.json

Data quality

Most of these data are generated automatically and are frequently updated. Quality checks on data are not normally performed. It is possible for incorrect values to appear. Refer to information at About Latest Weather Observations and please check the disclaimer before using these data.